sensor_id;sensor_type;location;lat;lon;timestamp;temperature;humidity
63445;DHT22;49573;47.682;9.170;2022-12-29T00:00:05;4.00;81.20
63445;DHT22;49573;47.682;9.170;2022-12-29T00:02:52;3.80;81.70
63445;DHT22;49573;47.682;9.170;2022-12-29T00:05:38;3.80;82.00
63445;DHT22;49573;47.682;9.170;2022-12-29T00:08:24;3.90;82.00
63445;DHT22;49573;47.682;9.170;2022-12-29T00:11:26;4.00;81.40
63445;DHT22;49573;47.682;9.170;2022-12-29T00:14:13;4.00;81.30
63445;DHT22;49573;47.682;9.170;2022-12-29T00:17:19;4.00;81.60
63445;DHT22;49573;47.682;9.170;2022-12-29T00:20:06;4.00;81.90
63445;DHT22;49573;47.682;9.170;2022-12-29T00:23:10;4.00;82.10
63445;DHT22;49573;47.682;9.170;2022-12-29T00:26:16;4.10;82.10
63445;DHT22;49573;47.682;9.170;2022-12-29T00:29:21;4.10;81.90
63445;DHT22;49573;47.682;9.170;2022-12-29T00:32:27;4.10;82.30
63445;DHT22;49573;47.682;9.170;2022-12-29T00:35:39;4.20;82.20
63445;DHT22;49573;47.682;9.170;2022-12-29T00:38:26;4.20;82.00
63445;DHT22;49573;47.682;9.170;2022-12-29T00:41:30;4.20;82.30
63445;DHT22;49573;47.682;9.170;2022-12-29T00:44:35;4.20;82.50
63445;DHT22;49573;47.682;9.170;2022-12-29T00:47:21;4.20;82.10
63445;DHT22;49573;47.682;9.170;2022-12-29T00:50:08;4.20;82.20
63445;DHT22;49573;47.682;9.170;2022-12-29T00:52:54;4.30;81.50
63445;DHT22;49573;47.682;9.170;2022-12-29T00:55:41;4.30;81.10
63445;DHT22;49573;47.682;9.170;2022-12-29T00:58:27;4.40;80.10
63445;DHT22;49573;47.682;9.170;2022-12-29T01:01:13;4.40;80.50
63445;DHT22;49573;47.682;9.170;2022-12-29T01:03:59;4.50;80.00
63445;DHT22;49573;47.682;9.170;2022-12-29T01:06:47;4.60;80.00
63445;DHT22;49573;47.682;9.170;2022-12-29T01:09:33;4.50;80.40
63445;DHT22;49573;47.682;9.170;2022-12-29T01:12:38;4.50;80.30
63445;DHT22;49573;47.682;9.170;2022-12-29T01:15:26;4.50;80.60
63445;DHT22;49573;47.682;9.170;2022-12-29T01:18:13;4.60;79.90
63445;DHT22;49573;47.682;9.170;2022-12-29T01:20:59;4.70;79.60
63445;DHT22;49573;47.682;9.170;2022-12-29T01:23:47;4.70;79.80
63445;DHT22;49573;47.682;9.170;2022-12-29T01:26:33;4.70;80.40
63445;DHT22;49573;47.682;9.170;2022-12-29T01:29:20;4.70;80.40
63445;DHT22;49573;47.682;9.170;2022-12-29T01:32:06;4.80;80.20
63445;DHT22;49573;47.682;9.170;2022-12-29T01:34:52;4.80;79.90
63445;DHT22;49573;47.682;9.170;2022-12-29T01:37:38;4.80;79.80
63445;DHT22;49573;47.682;9.170;2022-12-29T01:40:25;4.90;79.70
63445;DHT22;49573;47.682;9.170;2022-12-29T01:43:12;4.90;79.40
63445;DHT22;49573;47.682;9.170;2022-12-29T01:46:00;5.00;78.90
63445;DHT22;49573;47.682;9.170;2022-12-29T01:48:47;4.90;79.00
63445;DHT22;49573;47.682;9.170;2022-12-29T01:51:37;4.90;79.60
63445;DHT22;49573;47.682;9.170;2022-12-29T01:54:26;5.00;79.50
63445;DHT22;49573;47.682;9.170;2022-12-29T01:57:18;5.00;78.60
63445;DHT22;49573;47.682;9.170;2022-12-29T02:00:08;5.20;75.80
63445;DHT22;49573;47.682;9.170;2022-12-29T02:02:55;5.20;76.00
63445;DHT22;49573;47.682;9.170;2022-12-29T02:05:44;5.30;75.90
63445;DHT22;49573;47.682;9.170;2022-12-29T02:08:31;5.50;73.90
63445;DHT22;49573;47.682;9.170;2022-12-29T02:11:18;5.80;70.30
63445;DHT22;49573;47.682;9.170;2022-12-29T02:14:10;6.00;68.80
63445;DHT22;49573;47.682;9.170;2022-12-29T02:17:03;6.50;66.50
63445;DHT22;49573;47.682;9.170;2022-12-29T02:20:24;7.00;64.90
63445;DHT22;49573;47.682;9.170;2022-12-29T02:23:36;7.10;63.80
63445;DHT22;49573;47.682;9.170;2022-12-29T02:26:47;7.40;62.90
63445;DHT22;49573;47.682;9.170;2022-12-29T02:29:56;7.70;61.40
63445;DHT22;49573;47.682;9.170;2022-12-29T02:32:54;8.00;60.60
63445;DHT22;49573;47.682;9.170;2022-12-29T02:35:48;7.90;61.30
63445;DHT22;49573;47.682;9.170;2022-12-29T02:38:50;8.30;59.80
63445;DHT22;49573;47.682;9.170;2022-12-29T02:41:42;8.40;59.20
63445;DHT22;49573;47.682;9.170;2022-12-29T02:47:04;8.60;59.70
63445;DHT22;49573;47.682;9.170;2022-12-29T02:50:00;8.60;59.40
63445;DHT22;49573;47.682;9.170;2022-12-29T02:52:50;8.50;60.00
63445;DHT22;49573;47.682;9.170;2022-12-29T02:55:37;8.40;60.80
63445;DHT22;49573;47.682;9.170;2022-12-29T02:58:24;8.50;60.90
63445;DHT22;49573;47.682;9.170;2022-12-29T03:01:23;8.60;60.90
63445;DHT22;49573;47.682;9.170;2022-12-29T03:04:23;8.60;61.40
63445;DHT22;49573;47.682;9.170;2022-12-29T03:07:22;8.70;61.30
63445;DHT22;49573;47.682;9.170;2022-12-29T03:10:15;8.60;62.80
63445;DHT22;49573;47.682;9.170;2022-12-29T03:13:12;8.50;63.30
63445;DHT22;49573;47.682;9.170;2022-12-29T03:16:24;8.60;62.90
63445;DHT22;49573;47.682;9.170;2022-12-29T03:19:16;8.40;64.10
63445;DHT22;49573;47.682;9.170;2022-12-29T03:22:07;8.40;64.20
63445;DHT22;49573;47.682;9.170;2022-12-29T03:25:17;8.50;63.50
63445;DHT22;49573;47.682;9.170;2022-12-29T03:28:07;8.50;63.90
63445;DHT22;49573;47.682;9.170;2022-12-29T03:30:55;8.40;64.90
63445;DHT22;49573;47.682;9.170;2022-12-29T03:33:42;8.50;64.40
63445;DHT22;49573;47.682;9.170;2022-12-29T03:36:33;8.50;64.50
63445;DHT22;49573;47.682;9.170;2022-12-29T03:39:23;8.40;65.10
63445;DHT22;49573;47.682;9.170;2022-12-29T03:42:14;8.40;65.10
63445;DHT22;49573;47.682;9.170;2022-12-29T03:45:00;8.50;64.50
63445;DHT22;49573;47.682;9.170;2022-12-29T03:47:47;8.50;64.40
63445;DHT22;49573;47.682;9.170;2022-12-29T03:50:33;8.60;63.90
63445;DHT22;49573;47.682;9.170;2022-12-29T03:53:19;8.70;63.10
63445;DHT22;49573;47.682;9.170;2022-12-29T03:56:06;8.70;63.10
63445;DHT22;49573;47.682;9.170;2022-12-29T03:58:53;8.70;63.70
63445;DHT22;49573;47.682;9.170;2022-12-29T04:01:40;8.80;62.40
63445;DHT22;49573;47.682;9.170;2022-12-29T04:04:26;8.70;63.30
63445;DHT22;49573;47.682;9.170;2022-12-29T04:07:12;8.70;63.60
63445;DHT22;49573;47.682;9.170;2022-12-29T04:09:58;8.60;63.40
63445;DHT22;49573;47.682;9.170;2022-12-29T04:12:44;8.60;63.30
63445;DHT22;49573;47.682;9.170;2022-12-29T04:15:33;8.60;63.40
63445;DHT22;49573;47.682;9.170;2022-12-29T04:18:19;8.50;63.10
63445;DHT22;49573;47.682;9.170;2022-12-29T04:21:06;8.50;63.10
63445;DHT22;49573;47.682;9.170;2022-12-29T04:23:52;8.50;64.10
63445;DHT22;49573;47.682;9.170;2022-12-29T04:26:38;8.50;63.50
63445;DHT22;49573;47.682;9.170;2022-12-29T04:29:24;8.50;63.40
63445;DHT22;49573;47.682;9.170;2022-12-29T04:32:11;8.50;63.50
63445;DHT22;49573;47.682;9.170;2022-12-29T04:34:57;8.50;63.70
63445;DHT22;49573;47.682;9.170;2022-12-29T04:37:43;8.50;63.80
63445;DHT22;49573;47.682;9.170;2022-12-29T04:40:30;8.50;63.30
63445;DHT22;49573;47.682;9.170;2022-12-29T04:43:16;8.40;63.70
63445;DHT22;49573;47.682;9.170;2022-12-29T04:46:04;8.30;63.30
63445;DHT22;49573;47.682;9.170;2022-12-29T04:48:52;8.30;61.90
63445;DHT22;49573;47.682;9.170;2022-12-29T04:51:38;8.30;62.00
63445;DHT22;49573;47.682;9.170;2022-12-29T04:54:24;8.30;61.70
63445;DHT22;49573;47.682;9.170;2022-12-29T04:57:10;8.40;60.60
63445;DHT22;49573;47.682;9.170;2022-12-29T04:59:56;8.30;61.10
63445;DHT22;49573;47.682;9.170;2022-12-29T05:02:42;8.30;61.10
63445;DHT22;49573;47.682;9.170;2022-12-29T05:05:29;8.30;60.80
63445;DHT22;49573;47.682;9.170;2022-12-29T05:08:15;8.30;60.90
63445;DHT22;49573;47.682;9.170;2022-12-29T05:11:01;8.30;60.40
63445;DHT22;49573;47.682;9.170;2022-12-29T05:13:47;8.30;60.10
63445;DHT22;49573;47.682;9.170;2022-12-29T05:16:33;8.20;60.20
63445;DHT22;49573;47.682;9.170;2022-12-29T05:19:20;8.20;60.20
63445;DHT22;49573;47.682;9.170;2022-12-29T05:22:07;8.20;60.00
63445;DHT22;49573;47.682;9.170;2022-12-29T05:24:53;8.20;59.80
63445;DHT22;49573;47.682;9.170;2022-12-29T05:27:39;8.10;59.80
63445;DHT22;49573;47.682;9.170;2022-12-29T05:30:25;8.10;60.10
63445;DHT22;49573;47.682;9.170;2022-12-29T05:33:11;8.00;59.50
63445;DHT22;49573;47.682;9.170;2022-12-29T05:36:03;8.10;60.10
63445;DHT22;49573;47.682;9.170;2022-12-29T05:38:51;8.00;60.60
63445;DHT22;49573;47.682;9.170;2022-12-29T05:41:37;7.90;60.90
63445;DHT22;49573;47.682;9.170;2022-12-29T05:44:23;7.90;60.10
63445;DHT22;49573;47.682;9.170;2022-12-29T05:47:09;7.90;60.00
63445;DHT22;49573;47.682;9.170;2022-12-29T05:49:55;7.90;60.40
63445;DHT22;49573;47.682;9.170;2022-12-29T05:52:41;7.90;59.60
63445;DHT22;49573;47.682;9.170;2022-12-29T05:55:28;7.90;59.30
63445;DHT22;49573;47.682;9.170;2022-12-29T05:58:15;7.90;59.80
63445;DHT22;49573;47.682;9.170;2022-12-29T06:01:01;7.90;60.20
63445;DHT22;49573;47.682;9.170;2022-12-29T06:03:47;7.90;60.30
63445;DHT22;49573;47.682;9.170;2022-12-29T06:06:33;8.00;60.30
63445;DHT22;49573;47.682;9.170;2022-12-29T06:09:19;8.10;60.30
63445;DHT22;49573;47.682;9.170;2022-12-29T06:12:07;8.10;60.50
63445;DHT22;49573;47.682;9.170;2022-12-29T06:14:53;8.20;60.30
63445;DHT22;49573;47.682;9.170;2022-12-29T06:17:39;8.20;60.60
63445;DHT22;49573;47.682;9.170;2022-12-29T06:20:26;8.20;60.80
63445;DHT22;49573;47.682;9.170;2022-12-29T06:23:12;8.30;60.40
63445;DHT22;49573;47.682;9.170;2022-12-29T06:25:59;8.20;61.50
63445;DHT22;49573;47.682;9.170;2022-12-29T06:28:46;8.20;61.50
63445;DHT22;49573;47.682;9.170;2022-12-29T06:31:33;8.30;61.30
63445;DHT22;49573;47.682;9.170;2022-12-29T06:34:19;8.20;62.00
63445;DHT22;49573;47.682;9.170;2022-12-29T06:37:05;8.20;61.80
63445;DHT22;49573;47.682;9.170;2022-12-29T06:39:51;8.20;62.10
63445;DHT22;49573;47.682;9.170;2022-12-29T06:42:37;8.20;62.80
63445;DHT22;49573;47.682;9.170;2022-12-29T06:45:25;8.20;62.90
63445;DHT22;49573;47.682;9.170;2022-12-29T06:48:11;8.20;63.00
63445;DHT22;49573;47.682;9.170;2022-12-29T06:50:57;8.20;63.90
63445;DHT22;49573;47.682;9.170;2022-12-29T06:53:43;8.20;63.40
63445;DHT22;49573;47.682;9.170;2022-12-29T06:56:29;8.30;63.20
63445;DHT22;49573;47.682;9.170;2022-12-29T06:59:15;8.30;62.60
63445;DHT22;49573;47.682;9.170;2022-12-29T07:02:03;8.50;63.00
63445;DHT22;49573;47.682;9.170;2022-12-29T07:04:49;8.50;63.40
63445;DHT22;49573;47.682;9.170;2022-12-29T07:07:35;8.60;63.70
63445;DHT22;49573;47.682;9.170;2022-12-29T07:10:21;8.70;63.50
63445;DHT22;49573;47.682;9.170;2022-12-29T07:13:07;8.70;63.50
63445;DHT22;49573;47.682;9.170;2022-12-29T07:15:53;8.70;63.70
63445;DHT22;49573;47.682;9.170;2022-12-29T07:18:41;8.80;63.50
63445;DHT22;49573;47.682;9.170;2022-12-29T07:21:27;8.80;64.00
63445;DHT22;49573;47.682;9.170;2022-12-29T07:24:13;8.80;63.40
63445;DHT22;49573;47.682;9.170;2022-12-29T07:26:59;8.90;64.00
63445;DHT22;49573;47.682;9.170;2022-12-29T07:29:45;8.90;64.20
63445;DHT22;49573;47.682;9.170;2022-12-29T07:32:32;8.90;64.50
63445;DHT22;49573;47.682;9.170;2022-12-29T07:35:20;9.00;64.30
63445;DHT22;49573;47.682;9.170;2022-12-29T07:38:06;9.00;64.50
63445;DHT22;49573;47.682;9.170;2022-12-29T07:40:56;9.00;64.80
63445;DHT22;49573;47.682;9.170;2022-12-29T07:43:42;9.00;64.90
63445;DHT22;49573;47.682;9.170;2022-12-29T07:46:28;9.10;64.70
63445;DHT22;49573;47.682;9.170;2022-12-29T07:49:14;9.30;64.20
63445;DHT22;49573;47.682;9.170;2022-12-29T07:52:02;9.20;64.80
63445;DHT22;49573;47.682;9.170;2022-12-29T07:54:48;9.20;64.90
63445;DHT22;49573;47.682;9.170;2022-12-29T07:57:34;9.20;65.30
63445;DHT22;49573;47.682;9.170;2022-12-29T08:00:20;9.20;65.00
63445;DHT22;49573;47.682;9.170;2022-12-29T08:03:07;9.30;65.20
63445;DHT22;49573;47.682;9.170;2022-12-29T08:05:53;9.20;65.10
63445;DHT22;49573;47.682;9.170;2022-12-29T08:08:40;9.30;65.60
63445;DHT22;49573;47.682;9.170;2022-12-29T08:11:26;9.30;65.60
63445;DHT22;49573;47.682;9.170;2022-12-29T08:14:13;9.30;65.90
63445;DHT22;49573;47.682;9.170;2022-12-29T08:16:59;9.30;65.60
63445;DHT22;49573;47.682;9.170;2022-12-29T08:19:45;9.30;65.90
63445;DHT22;49573;47.682;9.170;2022-12-29T08:22:31;9.40;65.20
63445;DHT22;49573;47.682;9.170;2022-12-29T08:25:18;9.40;65.50
63445;DHT22;49573;47.682;9.170;2022-12-29T08:28:05;9.40;65.60
63445;DHT22;49573;47.682;9.170;2022-12-29T08:30:51;9.50;65.20
63445;DHT22;49573;47.682;9.170;2022-12-29T08:33:37;9.50;65.00
63445;DHT22;49573;47.682;9.170;2022-12-29T08:36:23;9.50;65.30
63445;DHT22;49573;47.682;9.170;2022-12-29T08:39:09;9.50;65.60
63445;DHT22;49573;47.682;9.170;2022-12-29T08:41:57;9.50;65.30
63445;DHT22;49573;47.682;9.170;2022-12-29T08:44:43;9.60;65.20
63445;DHT22;49573;47.682;9.170;2022-12-29T08:47:29;9.60;64.80
63445;DHT22;49573;47.682;9.170;2022-12-29T08:50:15;9.60;65.30
63445;DHT22;49573;47.682;9.170;2022-12-29T08:53:01;9.70;65.10
63445;DHT22;49573;47.682;9.170;2022-12-29T08:55:54;9.70;65.10
63445;DHT22;49573;47.682;9.170;2022-12-29T08:58:41;9.70;64.90
63445;DHT22;49573;47.682;9.170;2022-12-29T09:01:27;9.80;65.40
63445;DHT22;49573;47.682;9.170;2022-12-29T09:04:13;9.80;65.80
63445;DHT22;49573;47.682;9.170;2022-12-29T09:06:59;9.80;67.00
63445;DHT22;49573;47.682;9.170;2022-12-29T09:09:45;9.80;68.10
63445;DHT22;49573;47.682;9.170;2022-12-29T09:12:31;9.80;67.70
63445;DHT22;49573;47.682;9.170;2022-12-29T09:15:19;9.90;68.10
63445;DHT22;49573;47.682;9.170;2022-12-29T09:18:06;9.90;67.80
63445;DHT22;49573;47.682;9.170;2022-12-29T09:20:56;10.00;67.70
63445;DHT22;49573;47.682;9.170;2022-12-29T09:23:42;10.10;67.90
63445;DHT22;49573;47.682;9.170;2022-12-29T09:26:28;10.10;68.50
63445;DHT22;49573;47.682;9.170;2022-12-29T09:29:14;10.20;67.70
63445;DHT22;49573;47.682;9.170;2022-12-29T09:32:03;10.30;67.40
63445;DHT22;49573;47.682;9.170;2022-12-29T09:34:49;10.30;65.20
63445;DHT22;49573;47.682;9.170;2022-12-29T09:37:35;10.30;66.30
63445;DHT22;49573;47.682;9.170;2022-12-29T09:40:27;10.40;66.50
63445;DHT22;49573;47.682;9.170;2022-12-29T09:43:40;10.50;63.00
63445;DHT22;49573;47.682;9.170;2022-12-29T09:46:32;10.80;61.80
63445;DHT22;49573;47.682;9.170;2022-12-29T09:49:25;10.90;61.00
63445;DHT22;49573;47.682;9.170;2022-12-29T09:52:16;11.00;61.10
63445;DHT22;49573;47.682;9.170;2022-12-29T09:55:09;11.20;58.60
63445;DHT22;49573;47.682;9.170;2022-12-29T09:57:57;11.30;58.00
63445;DHT22;49573;47.682;9.170;2022-12-29T10:00:50;11.20;57.40
63445;DHT22;49573;47.682;9.170;2022-12-29T10:03:44;11.20;55.70
63445;DHT22;49573;47.682;9.170;2022-12-29T10:06:37;11.10;55.20
63445;DHT22;49573;47.682;9.170;2022-12-29T10:09:30;11.20;55.60
63445;DHT22;49573;47.682;9.170;2022-12-29T10:12:27;11.20;55.80
63445;DHT22;49573;47.682;9.170;2022-12-29T10:15:29;11.30;56.20
63445;DHT22;49573;47.682;9.170;2022-12-29T10:18:29;11.20;55.40
63445;DHT22;49573;47.682;9.170;2022-12-29T10:21:28;11.30;54.70
63445;DHT22;49573;47.682;9.170;2022-12-29T10:24:21;11.30;54.60
63445;DHT22;49573;47.682;9.170;2022-12-29T10:27:11;11.30;54.20
63445;DHT22;49573;47.682;9.170;2022-12-29T10:29:59;11.30;54.70
63445;DHT22;49573;47.682;9.170;2022-12-29T10:32:49;11.40;54.80
63445;DHT22;49573;47.682;9.170;2022-12-29T10:35:38;11.50;54.10
63445;DHT22;49573;47.682;9.170;2022-12-29T10:38:28;11.60;55.30
63445;DHT22;49573;47.682;9.170;2022-12-29T10:41:27;11.60;54.40
63445;DHT22;49573;47.682;9.170;2022-12-29T10:44:16;11.60;54.70
63445;DHT22;49573;47.682;9.170;2022-12-29T10:47:05;11.70;54.40
63445;DHT22;49573;47.682;9.170;2022-12-29T10:49:54;11.70;53.20
63445;DHT22;49573;47.682;9.170;2022-12-29T10:52:40;11.70;53.20
63445;DHT22;49573;47.682;9.170;2022-12-29T10:55:30;11.80;53.20
63445;DHT22;49573;47.682;9.170;2022-12-29T10:58:19;12.00;53.80
63445;DHT22;49573;47.682;9.170;2022-12-29T11:01:08;12.20;53.10
63445;DHT22;49573;47.682;9.170;2022-12-29T11:04:00;12.40;53.00
63445;DHT22;49573;47.682;9.170;2022-12-29T11:06:49;12.30;52.90
63445;DHT22;49573;47.682;9.170;2022-12-29T11:09:36;12.00;53.50
63445;DHT22;49573;47.682;9.170;2022-12-29T11:12:26;12.00;54.30
63445;DHT22;49573;47.682;9.170;2022-12-29T11:15:15;11.90;54.10
63445;DHT22;49573;47.682;9.170;2022-12-29T11:18:01;11.80;53.50
63445;DHT22;49573;47.682;9.170;2022-12-29T11:20:49;11.80;54.60
63445;DHT22;49573;47.682;9.170;2022-12-29T11:23:37;11.80;54.40
63445;DHT22;49573;47.682;9.170;2022-12-29T11:26:24;11.80;54.60
63445;DHT22;49573;47.682;9.170;2022-12-29T11:29:21;11.80;55.60
63445;DHT22;49573;47.682;9.170;2022-12-29T11:32:13;11.90;55.80
63445;DHT22;49573;47.682;9.170;2022-12-29T11:35:04;11.90;54.80
63445;DHT22;49573;47.682;9.170;2022-12-29T11:37:56;12.00;55.00
63445;DHT22;49573;47.682;9.170;2022-12-29T11:40:43;12.20;55.40
63445;DHT22;49573;47.682;9.170;2022-12-29T11:46:22;12.10;55.60
63445;DHT22;49573;47.682;9.170;2022-12-29T11:49:13;12.00;54.80
63445;DHT22;49573;47.682;9.170;2022-12-29T11:52:04;12.00;55.20
63445;DHT22;49573;47.682;9.170;2022-12-29T11:54:53;12.10;56.10
63445;DHT22;49573;47.682;9.170;2022-12-29T11:57:41;12.30;55.90
63445;DHT22;49573;47.682;9.170;2022-12-29T12:00:31;12.20;55.30
63445;DHT22;49573;47.682;9.170;2022-12-29T12:03:21;12.30;56.00
63445;DHT22;49573;47.682;9.170;2022-12-29T12:06:14;12.20;56.20
63445;DHT22;49573;47.682;9.170;2022-12-29T12:14:46;12.10;56.70
63445;DHT22;49573;47.682;9.170;2022-12-29T12:17:40;11.80;56.80
63445;DHT22;49573;47.682;9.170;2022-12-29T12:20:38;11.80;57.30
63445;DHT22;49573;47.682;9.170;2022-12-29T12:23:38;11.80;58.20
63445;DHT22;49573;47.682;9.170;2022-12-29T12:26:32;11.80;58.20
63445;DHT22;49573;47.682;9.170;2022-12-29T12:29:24;11.80;59.00
63445;DHT22;49573;47.682;9.170;2022-12-29T12:32:15;11.80;58.10
63445;DHT22;49573;47.682;9.170;2022-12-29T12:35:03;11.80;58.40
63445;DHT22;49573;47.682;9.170;2022-12-29T12:38:00;11.80;58.10
63445;DHT22;49573;47.682;9.170;2022-12-29T12:41:06;11.80;58.50
63445;DHT22;49573;47.682;9.170;2022-12-29T12:44:01;11.80;59.00
63445;DHT22;49573;47.682;9.170;2022-12-29T12:47:11;11.80;59.00
63445;DHT22;49573;47.682;9.170;2022-12-29T12:50:27;11.70;59.60
63445;DHT22;49573;47.682;9.170;2022-12-29T12:53:44;11.80;59.70
63445;DHT22;49573;47.682;9.170;2022-12-29T12:56:43;11.70;59.40
63445;DHT22;49573;47.682;9.170;2022-12-29T12:59:38;11.70;59.40
63445;DHT22;49573;47.682;9.170;2022-12-29T13:02:37;11.80;59.60
63445;DHT22;49573;47.682;9.170;2022-12-29T13:05:37;11.80;59.80
63445;DHT22;49573;47.682;9.170;2022-12-29T13:08:38;11.80;59.50
63445;DHT22;49573;47.682;9.170;2022-12-29T13:11:36;11.80;59.70
63445;DHT22;49573;47.682;9.170;2022-12-29T13:14:36;11.80;58.80
63445;DHT22;49573;47.682;9.170;2022-12-29T13:17:27;11.70;58.90
63445;DHT22;49573;47.682;9.170;2022-12-29T13:20:22;11.80;58.80
63445;DHT22;49573;47.682;9.170;2022-12-29T13:23:16;11.80;59.20
63445;DHT22;49573;47.682;9.170;2022-12-29T13:26:12;12.00;58.80
63445;DHT22;49573;47.682;9.170;2022-12-29T13:29:08;12.20;57.90
63445;DHT22;49573;47.682;9.170;2022-12-29T13:32:12;12.20;57.40
63445;DHT22;49573;47.682;9.170;2022-12-29T13:35:16;12.20;58.00
63445;DHT22;49573;47.682;9.170;2022-12-29T13:38:10;12.30;55.90
63445;DHT22;49573;47.682;9.170;2022-12-29T13:46:39;12.30;56.60
63445;DHT22;49573;47.682;9.170;2022-12-29T13:52:21;12.20;56.50
63445;DHT22;49573;47.682;9.170;2022-12-29T13:55:21;12.20;57.30
63445;DHT22;49573;47.682;9.170;2022-12-29T13:58:14;12.00;57.90
63445;DHT22;49573;47.682;9.170;2022-12-29T14:01:07;12.10;57.90
63445;DHT22;49573;47.682;9.170;2022-12-29T14:03:55;12.00;58.60
63445;DHT22;49573;47.682;9.170;2022-12-29T14:06:44;12.00;58.90
63445;DHT22;49573;47.682;9.170;2022-12-29T14:09:42;11.90;59.50
63445;DHT22;49573;47.682;9.170;2022-12-29T14:12:31;11.80;60.80
63445;DHT22;49573;47.682;9.170;2022-12-29T14:15:22;11.90;61.10
63445;DHT22;49573;47.682;9.170;2022-12-29T14:18:14;11.80;61.30
63445;DHT22;49573;47.682;9.170;2022-12-29T14:21:04;11.90;61.40
63445;DHT22;49573;47.682;9.170;2022-12-29T14:30:50;11.90;62.30
63445;DHT22;49573;47.682;9.170;2022-12-29T14:33:37;11.80;62.20
63445;DHT22;49573;47.682;9.170;2022-12-29T14:36:27;11.80;62.70
63445;DHT22;49573;47.682;9.170;2022-12-29T14:39:31;11.80;62.50
63445;DHT22;49573;47.682;9.170;2022-12-29T14:42:20;11.80;62.80
63445;DHT22;49573;47.682;9.170;2022-12-29T14:48:39;11.90;63.30
63445;DHT22;49573;47.682;9.170;2022-12-29T14:51:32;11.90;63.00
63445;DHT22;49573;47.682;9.170;2022-12-29T14:54:46;11.80;63.00
63445;DHT22;49573;47.682;9.170;2022-12-29T14:57:37;11.80;63.40
63445;DHT22;49573;47.682;9.170;2022-12-29T15:00:27;11.80;63.40
63445;DHT22;49573;47.682;9.170;2022-12-29T15:03:19;11.80;63.10
63445;DHT22;49573;47.682;9.170;2022-12-29T15:06:09;11.80;63.30
63445;DHT22;49573;47.682;9.170;2022-12-29T15:09:02;11.80;63.10
63445;DHT22;49573;47.682;9.170;2022-12-29T15:11:52;11.80;63.00
63445;DHT22;49573;47.682;9.170;2022-12-29T15:14:49;11.70;63.30
63445;DHT22;49573;47.682;9.170;2022-12-29T15:17:35;11.70;63.50
63445;DHT22;49573;47.682;9.170;2022-12-29T15:20:27;11.60;64.00
63445;DHT22;49573;47.682;9.170;2022-12-29T15:23:16;11.60;64.20
63445;DHT22;49573;47.682;9.170;2022-12-29T15:26:05;11.50;64.20
63445;DHT22;49573;47.682;9.170;2022-12-29T15:28:52;11.50;64.40
63445;DHT22;49573;47.682;9.170;2022-12-29T15:31:46;11.50;64.20
63445;DHT22;49573;47.682;9.170;2022-12-29T15:34:34;11.40;64.40
63445;DHT22;49573;47.682;9.170;2022-12-29T15:37:23;11.40;64.50
63445;DHT22;49573;47.682;9.170;2022-12-29T15:40:22;11.40;64.60
63445;DHT22;49573;47.682;9.170;2022-12-29T15:43:21;11.30;64.80
63445;DHT22;49573;47.682;9.170;2022-12-29T15:46:11;11.30;64.90
63445;DHT22;49573;47.682;9.170;2022-12-29T15:48:57;11.30;65.10
63445;DHT22;49573;47.682;9.170;2022-12-29T15:51:44;11.30;65.10
63445;DHT22;49573;47.682;9.170;2022-12-29T15:54:31;11.20;65.50
63445;DHT22;49573;47.682;9.170;2022-12-29T15:57:23;11.30;65.50
63445;DHT22;49573;47.682;9.170;2022-12-29T16:00:21;11.30;65.70
63445;DHT22;49573;47.682;9.170;2022-12-29T16:03:12;11.20;65.60
63445;DHT22;49573;47.682;9.170;2022-12-29T16:06:09;11.20;66.00
63445;DHT22;49573;47.682;9.170;2022-12-29T16:08:58;11.30;65.90
63445;DHT22;49573;47.682;9.170;2022-12-29T16:11:46;11.20;66.00
63445;DHT22;49573;47.682;9.170;2022-12-29T16:14:40;11.20;65.90
63445;DHT22;49573;47.682;9.170;2022-12-29T16:17:29;11.10;66.10
63445;DHT22;49573;47.682;9.170;2022-12-29T16:20:19;11.10;66.50
63445;DHT22;49573;47.682;9.170;2022-12-29T16:23:09;11.10;66.90
63445;DHT22;49573;47.682;9.170;2022-12-29T16:26:03;11.10;67.70
63445;DHT22;49573;47.682;9.170;2022-12-29T16:28:56;11.00;68.80
63445;DHT22;49573;47.682;9.170;2022-12-29T16:31:52;11.00;69.40
63445;DHT22;49573;47.682;9.170;2022-12-29T16:34:43;10.80;70.70
63445;DHT22;49573;47.682;9.170;2022-12-29T16:37:33;10.80;70.90
63445;DHT22;49573;47.682;9.170;2022-12-29T16:40:25;10.80;71.60
63445;DHT22;49573;47.682;9.170;2022-12-29T16:43:20;10.80;71.10
63445;DHT22;49573;47.682;9.170;2022-12-29T16:46:20;10.80;71.20
63445;DHT22;49573;47.682;9.170;2022-12-29T16:49:15;10.80;71.30
63445;DHT22;49573;47.682;9.170;2022-12-29T16:52:11;10.80;71.30
63445;DHT22;49573;47.682;9.170;2022-12-29T16:54:59;10.80;71.00
63445;DHT22;49573;47.682;9.170;2022-12-29T16:57:48;10.90;70.90
63445;DHT22;49573;47.682;9.170;2022-12-29T17:00:36;10.80;70.90
63445;DHT22;49573;47.682;9.170;2022-12-29T17:03:22;10.80;71.50
63445;DHT22;49573;47.682;9.170;2022-12-29T17:06:14;10.80;71.80
63445;DHT22;49573;47.682;9.170;2022-12-29T17:09:01;10.80;71.40
63445;DHT22;49573;47.682;9.170;2022-12-29T17:11:48;10.80;71.30
63445;DHT22;49573;47.682;9.170;2022-12-29T17:14:43;10.80;71.30
63445;DHT22;49573;47.682;9.170;2022-12-29T17:17:32;10.80;71.70
63445;DHT22;49573;47.682;9.170;2022-12-29T17:20:20;10.80;71.90
63445;DHT22;49573;47.682;9.170;2022-12-29T17:23:14;10.80;71.50
63445;DHT22;49573;47.682;9.170;2022-12-29T17:26:01;10.80;71.70
63445;DHT22;49573;47.682;9.170;2022-12-29T17:28:47;10.70;72.00
63445;DHT22;49573;47.682;9.170;2022-12-29T17:31:33;10.80;72.00
63445;DHT22;49573;47.682;9.170;2022-12-29T17:34:19;10.80;72.20
63445;DHT22;49573;47.682;9.170;2022-12-29T17:37:21;10.70;72.80
63445;DHT22;49573;47.682;9.170;2022-12-29T17:40:15;10.70;73.90
63445;DHT22;49573;47.682;9.170;2022-12-29T17:43:01;10.60;74.40
63445;DHT22;49573;47.682;9.170;2022-12-29T17:45:52;10.50;75.30
63445;DHT22;49573;47.682;9.170;2022-12-29T17:48:38;10.30;77.00
63445;DHT22;49573;47.682;9.170;2022-12-29T17:51:24;10.30;78.00
63445;DHT22;49573;47.682;9.170;2022-12-29T17:54:18;10.20;79.00
63445;DHT22;49573;47.682;9.170;2022-12-29T17:57:08;10.10;80.20
63445;DHT22;49573;47.682;9.170;2022-12-29T17:59:55;10.00;80.80
63445;DHT22;49573;47.682;9.170;2022-12-29T18:02:41;9.80;81.40
63445;DHT22;49573;47.682;9.170;2022-12-29T18:05:29;9.80;81.70
63445;DHT22;49573;47.682;9.170;2022-12-29T18:08:15;9.70;82.30
63445;DHT22;49573;47.682;9.170;2022-12-29T18:11:01;9.80;82.10
63445;DHT22;49573;47.682;9.170;2022-12-29T18:13:51;9.80;82.00
63445;DHT22;49573;47.682;9.170;2022-12-29T18:16:38;9.80;82.50
63445;DHT22;49573;47.682;9.170;2022-12-29T18:19:24;9.70;82.20
63445;DHT22;49573;47.682;9.170;2022-12-29T18:22:10;9.70;82.70
63445;DHT22;49573;47.682;9.170;2022-12-29T18:24:56;9.70;82.60
63445;DHT22;49573;47.682;9.170;2022-12-29T18:27:42;9.70;82.70
63445;DHT22;49573;47.682;9.170;2022-12-29T18:30:30;9.70;82.90
63445;DHT22;49573;47.682;9.170;2022-12-29T18:33:18;9.60;83.10
63445;DHT22;49573;47.682;9.170;2022-12-29T18:36:05;9.60;82.90